createdAt,value
2024-02-08T00:01:54.500Z,100315.84
2024-02-08T00:04:33.059Z,100323.13
2024-02-08T00:07:12.023Z,100322.72
2024-02-08T00:09:52.425Z,100329.59
2024-02-08T00:12:26.466Z,100322.28
2024-02-08T00:15:00.444Z,100322.31
2024-02-08T00:17:34.174Z,100321.91
2024-02-08T00:20:14.367Z,100323.13
2024-02-08T00:22:48.255Z,100313.03
2024-02-08T00:25:24.834Z,100314.63
2024-02-08T00:27:58.446Z,100314.63
2024-02-08T00:30:31.666Z,100306.16
2024-02-08T00:33:03.824Z,100309.41
2024-02-08T00:35:37.403Z,100303.34
2024-02-08T00:38:12.893Z,100300.97
2024-02-08T00:40:49.220Z,100302.13
2024-02-08T00:43:22.695Z,100309.00
2024-02-08T00:45:50.889Z,100304.56
2024-02-08T00:48:26.512Z,100303.78
2024-02-08T00:51:06.616Z,100304.59
2024-02-08T00:53:46.911Z,100301.78
2024-02-08T00:56:22.604Z,100296.91
2024-02-08T00:58:55.971Z,100291.66
2024-02-08T01:01:41.312Z,100295.31
2024-02-08T01:04:17.162Z,100302.16
2024-02-08T01:06:53.229Z,100297.31
2024-02-08T01:09:29.216Z,100299.34
2024-02-08T01:12:03.411Z,100299.34
2024-02-08T01:14:32.472Z,100296.53
2024-02-08T01:17:09.604Z,100296.53
2024-02-08T01:19:43.972Z,100299.78
2024-02-08T01:22:21.398Z,100292.09
2024-02-08T01:24:54.628Z,100283.63
2024-02-08T01:27:27.682Z,100285.22
2024-02-08T01:30:08.787Z,100281.19
2024-02-08T01:32:44.583Z,100276.78
2024-02-08T01:35:23.820Z,100280.41
2024-02-08T01:38:01.256Z,100276.78
2024-02-08T01:40:29.340Z,100272.72
2024-02-08T01:43:00.224Z,100273.94
2024-02-08T01:45:44.309Z,100272.34
2024-02-08T01:48:18.208Z,100271.53
2024-02-08T01:50:52.839Z,100262.66
2024-02-08T01:53:30.591Z,100270.31
2024-02-08T01:56:05.175Z,100267.91
2024-02-08T01:58:43.223Z,100257.00
2024-02-08T02:01:18.605Z,100250.56
2024-02-08T02:03:51.645Z,100256.59
2024-02-08T02:06:22.450Z,100253.41
2024-02-08T02:09:07.107Z,100249.75
2024-02-08T02:11:47.662Z,100238.03
2024-02-08T02:14:30.740Z,100236.00
2024-02-08T02:17:16.801Z,100227.94
2024-02-08T02:19:50.919Z,100219.84
2024-02-08T02:22:33.447Z,100213.41
2024-02-08T02:25:06.935Z,100215.81
2024-02-08T02:27:43.684Z,100220.22
2024-02-08T02:30:17.821Z,100219.03
2024-02-08T02:32:56.326Z,100220.22
2024-02-08T02:35:30.237Z,100209.72
2024-02-08T02:38:10.933Z,100209.72
2024-02-08T02:40:50.968Z,100211.31
2024-02-08T02:43:27.768Z,100210.47
2024-02-08T02:46:07.228Z,100200.44
2024-02-08T02:48:49.622Z,100201.19
2024-02-08T02:51:23.067Z,100192.31
2024-02-08T02:54:02.421Z,100193.94
2024-02-08T02:56:37.664Z,100202.38
2024-02-08T02:59:17.827Z,100191.88
2024-02-08T03:01:50.587Z,100185.81
2024-02-08T03:04:32.106Z,100193.91
2024-02-08T03:07:08.099Z,100188.66
2024-02-08T03:09:44.269Z,100187.06
2024-02-08T03:12:17.372Z,100182.28
2024-02-08T03:15:00.379Z,100179.88
2024-02-08T03:17:37.430Z,100182.72
2024-02-08T03:20:18.241Z,100182.31
2024-02-08T03:22:52.884Z,100179.50
2024-02-08T03:25:24.309Z,100181.13
2024-02-08T03:27:54.391Z,100187.59
2024-02-08T03:30:36.421Z,100188.44
2024-02-08T03:33:17.735Z,100184.41
2024-02-08T03:35:54.788Z,100192.47
2024-02-08T03:38:25.534Z,100185.22
2024-02-08T03:40:59.641Z,100188.03
2024-02-08T03:43:35.607Z,100190.03
2024-02-08T03:46:22.855Z,100192.47
2024-02-08T03:48:55.629Z,100186.03
2024-02-08T03:51:31.804Z,100181.56
2024-02-08T03:54:10.091Z,100188.84
2024-02-08T03:56:52.574Z,100188.84
2024-02-08T03:59:29.022Z,100183.19
2024-02-08T04:02:07.092Z,100182.78
2024-02-08T04:04:55.367Z,100179.16
2024-02-08T04:07:45.945Z,100179.97
2024-02-08T04:10:34.170Z,100185.22
2024-02-08T04:13:25.734Z,100182.00
2024-02-08T04:16:17.281Z,100180.38
2024-02-08T04:19:07.600Z,100175.97
2024-02-08T04:22:02.526Z,100178.78
2024-02-08T04:24:51.289Z,100178.78
2024-02-08T04:27:42.509Z,100178.00
2024-02-08T04:30:34.824Z,100181.19
2024-02-08T04:33:29.431Z,100180.81
2024-02-08T04:36:29.842Z,100178.78
2024-02-08T04:39:21.299Z,100175.97
2024-02-08T04:42:13.779Z,100180.41
2024-02-08T04:45:05.416Z,100184.44
2024-02-08T04:48:03.079Z,100185.63
2024-02-08T04:50:58.565Z,100186.88
2024-02-08T04:53:39.140Z,100182.03
2024-02-08T04:56:13.624Z,100187.28
2024-02-08T04:59:08.719Z,100185.66
2024-02-08T05:01:46.775Z,100187.66
2024-02-08T05:04:22.586Z,100181.22
2024-02-08T05:06:58.638Z,100181.22
2024-02-08T05:09:32.756Z,100177.59
2024-02-08T05:12:01.608Z,100179.22
2024-02-08T05:14:37.348Z,100185.25
2024-02-08T05:17:05.362Z,100199.38
2024-02-08T05:19:35.363Z,100188.91
2024-02-08T05:22:12.630Z,100182.84
2024-02-08T05:24:43.412Z,100184.06
2024-02-08T05:27:27.095Z,100184.03
2024-02-08T05:30:00.620Z,100180.00
2024-02-08T05:32:37.198Z,100188.09
2024-02-08T05:35:16.214Z,100189.28
2024-02-08T05:37:49.128Z,100178.41
2024-02-08T05:40:25.191Z,100192.53
2024-02-08T05:43:04.939Z,100179.63
2024-02-08T05:45:45.218Z,100193.75
2024-02-08T05:48:18.802Z,100190.09
2024-02-08T05:50:48.669Z,100194.53
2024-02-08T05:53:21.645Z,100195.75
2024-02-08T05:55:54.888Z,100198.97
2024-02-08T05:58:28.735Z,100187.69
2024-02-08T06:01:03.465Z,100194.53
2024-02-08T06:03:39.400Z,100191.31
2024-02-08T06:06:18.642Z,100199.78
2024-02-08T06:09:00.948Z,100194.13
2024-02-08T06:11:38.759Z,100194.56
2024-02-08T06:14:27.229Z,100198.56
2024-02-08T06:17:08.278Z,100207.03
2024-02-08T06:19:52.487Z,100208.25
2024-02-08T06:22:30.609Z,100217.94
2024-02-08T06:25:10.842Z,100220.75
2024-02-08T06:27:43.126Z,100223.16
2024-02-08T06:30:27.425Z,100227.19
2024-02-08T06:33:12.466Z,100223.97
2024-02-08T06:35:47.058Z,100223.97
2024-02-08T06:38:42.846Z,100225.56
2024-02-08T06:41:25.270Z,100239.69
2024-02-08T06:44:19.309Z,100246.16
2024-02-08T06:47:12.586Z,100243.34
2024-02-08T06:50:04.278Z,100244.94
2024-02-08T06:52:56.102Z,100259.03
2024-02-08T06:55:46.311Z,100265.91
2024-02-08T06:58:35.587Z,100254.63
2024-02-08T07:01:27.125Z,100262.66
2024-02-08T07:04:14.003Z,100255.41
2024-02-08T07:07:03.108Z,100274.38
2024-02-08T07:09:55.246Z,100269.13
2024-02-08T07:12:45.138Z,100269.53
2024-02-08T07:15:34.322Z,100261.06
2024-02-08T07:18:21.114Z,100278.78
2024-02-08T07:21:13.282Z,100284.84
2024-02-08T07:24:05.045Z,100275.56
2024-02-08T07:26:51.796Z,100280.81
2024-02-08T07:29:43.799Z,100281.63
2024-02-08T07:32:36.059Z,100282.81
2024-02-08T07:35:25.855Z,100283.25
2024-02-08T07:38:00.730Z,100285.28
2024-02-08T07:40:37.085Z,100280.00
2024-02-08T07:43:15.041Z,100285.22
2024-02-08T07:45:47.702Z,100282.84
2024-02-08T07:48:38.078Z,100287.66
2024-02-08T07:51:08.855Z,100294.50
2024-02-08T07:53:47.417Z,100281.97
2024-02-08T07:56:25.909Z,100284.00
2024-02-08T07:59:05.678Z,100280.75
2024-02-08T08:01:41.388Z,100281.53
2024-02-08T08:04:42.196Z,100283.84
2024-02-08T08:07:14.486Z,100287.47
2024-02-08T08:09:51.089Z,100292.34
2024-02-08T08:12:25.447Z,100298.00
2024-02-08T08:15:02.946Z,100300.41
2024-02-08T08:17:42.192Z,100291.44
2024-02-08T08:20:37.747Z,100295.88
2024-02-08T08:23:09.680Z,100296.25
2024-02-08T08:26:02.020Z,100301.53
2024-02-08T08:28:30.786Z,100301.09
2024-02-08T08:31:18.672Z,100293.47
2024-02-08T08:34:13.893Z,100298.78
2024-02-08T08:36:43.497Z,100305.22
2024-02-08T08:39:30.730Z,100300.00
2024-02-08T08:42:07.267Z,100302.84
2024-02-08T08:44:36.053Z,100312.56
2024-02-08T08:47:04.469Z,100315.38
2024-02-08T08:49:41.572Z,100319.81
2024-02-08T08:52:25.334Z,100311.72
2024-02-08T08:55:24.237Z,100308.09
2024-02-08T08:58:02.028Z,100319.41
2024-02-08T09:00:34.310Z,100315.78
2024-02-08T09:03:12.045Z,100316.19
2024-02-08T09:05:40.947Z,100323.84
2024-02-08T09:08:24.017Z,100327.88
2024-02-08T09:10:58.343Z,100335.19
2024-02-08T09:13:29.319Z,100338.38
2024-02-08T09:15:58.093Z,100345.25
2024-02-08T09:18:45.134Z,100350.91
2024-02-08T09:21:14.773Z,100357.38
2024-02-08T09:23:46.075Z,100361.00
2024-02-08T09:26:15.016Z,100365.88
2024-02-08T09:28:46.172Z,100364.25
2024-02-08T09:31:37.554Z,100360.22
2024-02-08T09:34:18.562Z,100366.25
2024-02-08T09:36:47.692Z,100361.81
2024-02-08T09:39:20.898Z,100369.09
2024-02-08T09:41:51.961Z,100362.22
2024-02-08T09:44:30.026Z,100369.13
2024-02-08T09:47:08.640Z,100365.44
2024-02-08T09:49:44.102Z,100366.66
2024-02-08T09:52:25.696Z,100379.59
2024-02-08T09:54:56.682Z,100387.63
2024-02-08T09:57:33.387Z,100381.94
2024-02-08T10:00:08.883Z,100371.41
2024-02-08T10:02:55.770Z,100370.19
2024-02-08T10:05:50.374Z,100375.44
2024-02-08T10:08:30.569Z,100367.69
2024-02-08T10:11:25.314Z,100375.38
2024-02-08T10:14:03.612Z,100371.28
2024-02-08T10:16:44.143Z,100375.31
2024-02-08T10:19:30.198Z,100376.47
2024-02-08T10:22:12.426Z,100381.72
2024-02-08T10:24:50.482Z,100384.94
2024-02-08T10:27:22.580Z,100390.63
2024-02-08T10:30:09.810Z,100389.00
2024-02-08T10:32:43.133Z,100385.34
2024-02-08T10:35:38.957Z,100383.75
2024-02-08T10:38:31.867Z,100374.84
2024-02-08T10:41:04.156Z,100379.72
2024-02-08T10:43:39.036Z,100366.38
2024-02-08T10:46:18.354Z,100361.06
2024-02-08T10:48:54.109Z,100352.22
2024-02-08T10:51:27.830Z,100351.00
2024-02-08T10:54:18.016Z,100347.34
2024-02-08T10:57:30.540Z,100340.03
2024-02-08T11:00:23.180Z,100336.41
2024-02-08T11:03:10.557Z,100337.22
2024-02-08T11:05:50.785Z,100323.50
2024-02-08T11:08:34.941Z,100319.00
2024-02-08T11:11:13.891Z,100309.22
2024-02-08T11:13:55.134Z,100300.38
2024-02-08T11:16:37.438Z,100296.63
2024-02-08T11:19:06.706Z,100302.66
2024-02-08T11:21:45.840Z,100301.50
2024-02-08T11:24:31.301Z,100295.38
2024-02-08T11:27:09.317Z,100301.84
2024-02-08T11:29:49.106Z,100287.63
2024-02-08T11:32:24.215Z,100296.09
2024-02-08T11:35:02.460Z,100289.28
2024-02-08T11:37:40.022Z,100291.59
2024-02-08T11:40:14.404Z,100278.97
2024-02-08T11:42:45.017Z,100279.25
2024-02-08T11:45:17.990Z,100267.50
2024-02-08T11:47:50.741Z,100254.53
2024-02-08T11:50:25.904Z,100251.38
2024-02-08T11:53:01.064Z,100263.19
2024-02-08T11:55:40.685Z,100264.44
2024-02-08T11:58:13.416Z,100268.03
2024-02-08T12:00:50.751Z,100262.94
2024-02-08T12:03:24.177Z,100257.09
2024-02-08T12:05:58.925Z,100254.25
2024-02-08T12:08:36.881Z,100258.22
2024-02-08T12:11:11.910Z,100262.28
2024-02-08T12:13:41.140Z,100268.28
2024-02-08T12:16:09.524Z,100258.97
2024-02-08T12:18:38.295Z,100251.84
2024-02-08T12:21:19.129Z,100248.47
2024-02-08T12:23:54.767Z,100240.66
2024-02-08T12:26:31.465Z,100240.88
2024-02-08T12:29:05.212Z,100240.03
2024-02-08T12:31:37.637Z,100242.50
2024-02-08T12:34:06.098Z,100235.63
2024-02-08T12:36:37.750Z,100228.72
2024-02-08T12:39:19.493Z,100227.13
2024-02-08T12:41:56.421Z,100227.59
2024-02-08T12:44:29.355Z,100216.50
2024-02-08T12:47:02.866Z,100205.31
2024-02-08T12:49:33.721Z,100197.69
2024-02-08T12:52:11.243Z,100208.00
2024-02-08T12:54:42.392Z,100199.59
2024-02-08T12:57:16.383Z,100200.81
2024-02-08T12:59:48.645Z,100195.84
2024-02-08T13:02:21.220Z,100191.63
2024-02-08T13:04:56.700Z,100193.63
2024-02-08T13:07:28.273Z,100177.72
2024-02-08T13:10:08.438Z,100172.72
2024-02-08T13:12:38.742Z,100172.16
2024-02-08T13:15:07.887Z,100159.38
2024-02-08T13:17:41.908Z,100159.69
2024-02-08T13:20:19.113Z,100163.81
2024-02-08T13:22:54.017Z,100164.22
2024-02-08T13:25:29.953Z,100167.53
2024-02-08T13:28:03.922Z,100169.38
2024-02-08T13:30:41.848Z,100165.13
2024-02-08T13:33:15.462Z,100152.97
2024-02-08T13:35:47.545Z,100143.81
2024-02-08T13:38:26.972Z,100143.69
2024-02-08T13:41:01.114Z,100159.34
2024-02-08T13:43:35.338Z,100164.66
2024-02-08T13:46:11.918Z,100169.50
2024-02-08T13:48:45.643Z,100157.81
2024-02-08T13:51:20.610Z,100152.88
2024-02-08T13:53:51.691Z,100156.16
2024-02-08T13:56:22.706Z,100157.69
2024-02-08T13:58:51.681Z,100155.50
2024-02-08T14:01:27.410Z,100152.44
2024-02-08T14:04:00.738Z,100155.72
2024-02-08T14:06:33.051Z,100167.63
2024-02-08T14:09:20.773Z,100161.53
2024-02-08T14:11:54.133Z,100176.03
2024-02-08T14:14:41.935Z,100174.00
2024-02-08T14:17:22.107Z,100172.31
2024-02-08T14:19:57.171Z,100168.00
2024-02-08T14:22:26.740Z,100172.59
2024-02-08T14:24:57.628Z,100179.16
2024-02-08T14:27:26.691Z,100178.69
2024-02-08T14:29:55.254Z,100176.59
2024-02-08T14:32:28.695Z,100171.16
2024-02-08T14:35:18.179Z,100154.38
2024-02-08T14:37:47.734Z,100152.50
2024-02-08T14:40:20.329Z,100148.97
2024-02-08T14:42:48.857Z,100151.97
2024-02-08T14:45:18.846Z,100151.31
2024-02-08T14:47:53.631Z,100139.25
2024-02-08T14:50:44.907Z,100141.09
2024-02-08T14:53:26.664Z,100138.41
2024-02-08T14:56:02.584Z,100144.09
2024-02-08T14:58:34.533Z,100139.94
2024-02-08T15:01:32.421Z,100130.69
2024-02-08T15:04:01.380Z,100141.25
2024-02-08T15:06:52.976Z,100152.03
2024-02-08T15:09:35.925Z,100143.81
2024-02-08T15:12:26.087Z,100147.91
2024-02-08T15:14:56.852Z,100145.78
2024-02-08T15:17:29.767Z,100147.63
2024-02-08T15:20:18.185Z,100146.63
2024-02-08T15:22:51.923Z,100156.88
2024-02-08T15:25:29.308Z,100149.53
2024-02-08T15:28:04.743Z,100146.25
2024-02-08T15:30:38.539Z,100153.50
2024-02-08T15:33:27.217Z,100146.38
2024-02-08T15:36:12.196Z,100149.25
2024-02-08T15:39:02.336Z,100138.34
2024-02-08T15:41:52.471Z,100132.84
2024-02-08T15:44:36.980Z,100133.25
2024-02-08T15:47:17.335Z,100125.81
2024-02-08T15:49:56.480Z,100127.69
2024-02-08T15:52:31.085Z,100120.31
2024-02-08T15:55:01.166Z,100120.59
2024-02-08T15:57:46.876Z,100125.53
2024-02-08T16:00:56.898Z,100119.06
2024-02-08T16:03:30.740Z,100127.56
2024-02-08T16:06:24.896Z,100127.56
2024-02-08T16:08:59.650Z,100118.50
2024-02-08T16:11:35.689Z,100111.09
2024-02-08T16:14:06.101Z,100119.38
2024-02-08T16:16:39.060Z,100114.13
2024-02-08T16:19:26.088Z,100116.94
2024-02-08T16:22:17.184Z,100115.50
2024-02-08T16:24:50.834Z,100111.00
2024-02-08T16:27:21.118Z,100115.13
2024-02-08T16:30:03.567Z,100120.44
2024-02-08T16:32:36.488Z,100110.22
2024-02-08T16:35:29.675Z,100112.09
2024-02-08T16:38:09.339Z,100114.19
2024-02-08T16:40:45.629Z,100112.94
2024-02-08T16:43:21.381Z,100108.25
2024-02-08T16:45:51.690Z,100114.44
2024-02-08T16:48:25.454Z,100106.31
2024-02-08T16:51:01.484Z,100092.56
2024-02-08T16:53:35.573Z,100097.22
2024-02-08T16:56:12.020Z,100100.53
2024-02-08T16:58:51.944Z,100104.69
2024-02-08T17:01:20.616Z,100102.78
2024-02-08T17:04:18.307Z,100104.69
2024-02-08T17:07:04.788Z,100113.00
2024-02-08T17:09:45.137Z,100112.94
2024-02-08T17:12:25.257Z,100118.56
2024-02-08T17:14:55.376Z,100117.00
2024-02-08T17:17:26.485Z,100115.97
2024-02-08T17:20:04.490Z,100119.94
2024-02-08T17:22:53.159Z,100123.22
2024-02-08T17:25:43.445Z,100122.38
2024-02-08T17:28:22.721Z,100123.56
2024-02-08T17:31:07.855Z,100127.75
2024-02-08T17:33:48.591Z,100115.50
2024-02-08T17:36:17.347Z,100118.09
2024-02-08T17:38:46.317Z,100111.19
2024-02-08T17:41:20.588Z,100105.97
2024-02-08T17:43:56.794Z,100118.19
2024-02-08T17:46:26.050Z,100107.91
2024-02-08T17:48:57.057Z,100116.47
2024-02-08T17:51:39.231Z,100118.56
2024-02-08T17:54:16.320Z,100129.91
2024-02-08T17:56:46.986Z,100136.88
2024-02-08T17:59:20.273Z,100136.88
2024-02-08T18:02:03.153Z,100137.22
2024-02-08T18:04:32.108Z,100142.59
2024-02-08T18:07:09.429Z,100147.94
2024-02-08T18:09:41.920Z,100150.63
2024-02-08T18:12:23.903Z,100151.09
2024-02-08T18:14:57.799Z,100146.69
2024-02-08T18:17:26.752Z,100141.44
2024-02-08T18:20:01.625Z,100132.16
2024-02-08T18:22:32.255Z,100119.63
2024-02-08T18:25:08.467Z,100137.59
2024-02-08T18:27:39.082Z,100131.38
2024-02-08T18:30:10.940Z,100134.31
2024-02-08T18:32:40.751Z,100131.09
2024-02-08T18:35:11.755Z,100127.59
2024-02-08T18:37:40.125Z,100123.56
2024-02-08T18:40:19.902Z,100128.88
2024-02-08T18:42:49.478Z,100135.38
2024-02-08T18:45:18.801Z,100117.19
2024-02-08T18:47:51.613Z,100115.59
2024-02-08T18:50:42.865Z,100118.91
2024-02-08T18:53:14.389Z,100129.13
2024-02-08T18:55:52.310Z,100118.25
2024-02-08T18:58:23.181Z,100105.34
2024-02-08T19:00:56.118Z,100107.78
2024-02-08T19:03:30.304Z,100112.72
2024-02-08T19:06:01.290Z,100107.84
2024-02-08T19:08:38.069Z,100109.56
2024-02-08T19:11:08.741Z,100111.56
2024-02-08T19:13:41.200Z,100116.84
2024-02-08T19:16:16.354Z,100122.09
2024-02-08T19:18:53.401Z,100115.25
2024-02-08T19:21:33.017Z,100102.72
2024-02-08T19:24:06.075Z,100102.31
2024-02-08T19:26:34.991Z,100102.00
2024-02-08T19:29:08.171Z,100103.97
2024-02-08T19:31:43.648Z,100103.59
2024-02-08T19:34:19.549Z,100110.09
2024-02-08T19:36:59.991Z,100108.03
2024-02-08T19:39:28.216Z,100111.31
2024-02-08T19:42:03.560Z,100110.91
2024-02-08T19:44:36.694Z,100101.97
2024-02-08T19:47:22.495Z,100087.47
2024-02-08T19:49:54.152Z,100087.84
2024-02-08T19:52:24.592Z,100095.53
2024-02-08T19:54:58.338Z,100092.34
2024-02-08T19:57:34.639Z,100085.50
2024-02-08T20:00:05.205Z,100082.66
2024-02-08T20:02:36.057Z,100085.91
2024-02-08T20:05:06.219Z,100091.22
2024-02-08T20:07:41.006Z,100096.00
2024-02-08T20:10:16.000Z,100104.09
2024-02-08T20:12:46.557Z,100101.69
2024-02-08T20:15:19.579Z,100097.69
2024-02-08T20:17:51.667Z,100088.00
2024-02-08T20:20:21.189Z,100085.13
2024-02-08T20:22:57.133Z,100078.72
2024-02-08T20:25:29.073Z,100086.75
2024-02-08T20:28:01.310Z,100079.09
2024-02-08T20:30:34.733Z,100077.50
2024-02-08T20:33:07.211Z,100075.09
2024-02-08T20:35:40.599Z,100072.22
2024-02-08T20:38:13.436Z,100080.69
2024-02-08T20:40:45.478Z,100075.91
2024-02-08T20:43:19.446Z,100083.94
2024-02-08T20:45:55.931Z,100088.00
2024-02-08T20:48:26.625Z,100086.41
2024-02-08T20:51:00.946Z,100092.47
2024-02-08T20:53:28.930Z,100079.97
2024-02-08T20:55:59.309Z,100081.97
2024-02-08T20:58:27.644Z,100070.22
2024-02-08T21:01:03.322Z,100065.38
2024-02-08T21:03:35.621Z,100059.72
2024-02-08T21:06:04.018Z,100050.50
2024-02-08T21:08:40.970Z,100061.41
2024-02-08T21:11:13.366Z,100061.00
2024-02-08T21:13:50.030Z,100058.25
2024-02-08T21:16:21.309Z,100052.56
2024-02-08T21:18:52.365Z,100043.28
2024-02-08T21:21:22.801Z,100042.41
2024-02-08T21:23:53.242Z,100037.53
2024-02-08T21:26:23.249Z,100035.16
2024-02-08T21:28:52.611Z,100037.59
2024-02-08T21:31:20.495Z,100042.03
2024-02-08T21:33:51.968Z,100046.47
2024-02-08T21:36:22.372Z,100045.34
2024-02-08T21:38:51.951Z,100036.84
2024-02-08T21:41:19.758Z,100045.34
2024-02-08T21:43:50.054Z,100038.84
2024-02-08T21:46:18.969Z,100029.50
2024-02-08T21:48:50.496Z,100025.47
2024-02-08T21:51:18.452Z,100027.09
2024-02-08T21:53:49.803Z,100020.63
2024-02-08T21:56:20.303Z,100020.22
2024-02-08T21:58:51.389Z,100027.13
2024-02-08T22:01:36.909Z,100024.69
2024-02-08T22:04:05.857Z,100029.97
2024-02-08T22:06:34.639Z,100016.25
2024-02-08T22:09:12.082Z,100016.28
2024-02-08T22:11:53.298Z,100022.72
2024-02-08T22:14:25.189Z,100017.06
2024-02-08T22:16:55.771Z,100025.56
2024-02-08T22:19:24.816Z,100030.38
2024-02-08T22:21:54.920Z,100029.59
2024-02-08T22:24:26.102Z,100032.03
2024-02-08T22:26:54.231Z,100028.38
2024-02-08T22:29:26.214Z,100040.97
2024-02-08T22:31:57.373Z,100043.38
2024-02-08T22:34:25.463Z,100042.56
2024-02-08T22:36:58.468Z,100045.41
2024-02-08T22:39:26.575Z,100038.94
2024-02-08T22:41:58.660Z,100040.13
2024-02-08T22:44:26.620Z,100036.50
2024-02-08T22:46:56.096Z,100039.34
2024-02-08T22:49:26.662Z,100028.88
2024-02-08T22:51:54.792Z,100026.84
2024-02-08T22:54:22.786Z,100025.66
2024-02-08T22:56:56.298Z,100015.97
2024-02-08T22:59:28.973Z,100011.47
2024-02-08T23:02:05.247Z,100018.38
2024-02-08T23:04:33.055Z,100007.88
2024-02-08T23:07:02.401Z,100020.75
2024-02-08T23:09:30.245Z,100012.28
2024-02-08T23:11:59.245Z,100022.75
2024-02-08T23:14:31.317Z,100021.97
2024-02-08T23:17:00.023Z,100009.91
2024-02-08T23:19:30.920Z,100002.63
2024-02-08T23:22:00.672Z,99993.78
2024-02-08T23:24:28.841Z,100000.63
2024-02-08T23:26:56.691Z,99998.97
2024-02-08T23:29:27.758Z,100001.44
2024-02-08T23:31:58.973Z,99993.38
2024-02-08T23:34:26.858Z,99997.84
2024-02-08T23:36:56.230Z,99997.81
2024-02-08T23:39:29.158Z,99986.94
2024-02-08T23:42:00.186Z,99984.50
2024-02-08T23:44:30.516Z,99965.94
2024-02-08T23:46:59.677Z,99968.00
2024-02-08T23:49:27.710Z,99970.00
2024-02-08T23:51:57.265Z,99972.41
2024-02-08T23:54:25.180Z,99977.25
2024-02-08T23:56:56.342Z,99962.31
2024-02-08T23:59:24.369Z,99960.75
